createdAt,value
2018-03-26T00:00:03.364Z,33.37
2018-03-26T00:02:31.822Z,30.77
2018-03-26T00:05:00.235Z,31.83
2018-03-26T00:07:28.645Z,32.83
2018-03-26T00:09:57.113Z,33.87
2018-03-26T00:12:25.513Z,33.80
2018-03-26T00:14:53.917Z,30.87
2018-03-26T00:17:22.361Z,30.47
2018-03-26T00:19:50.770Z,30.47
2018-03-26T00:22:19.187Z,29.90
2018-03-26T00:24:47.642Z,31.20
2018-03-26T00:27:16.089Z,29.90
2018-03-26T00:29:44.486Z,29.20
2018-03-26T00:32:12.949Z,35.27
2018-03-26T00:34:41.360Z,30.13
2018-03-26T00:37:09.765Z,35.03
2018-03-26T00:39:38.229Z,32.20
2018-03-26T00:42:06.642Z,30.10
2018-03-26T00:44:35.095Z,31.90
2018-03-26T00:47:03.553Z,32.60
2018-03-26T00:49:31.958Z,32.80
2018-03-26T00:52:00.371Z,28.93
2018-03-26T00:54:28.814Z,30.63
2018-03-26T00:56:57.280Z,33.37
2018-03-26T00:59:25.694Z,31.43
2018-03-26T01:01:54.150Z,32.77
2018-03-26T01:04:22.594Z,32.97
2018-03-26T01:06:50.997Z,31.93
2018-03-26T01:09:19.445Z,28.50
2018-03-26T01:11:47.854Z,32.00
2018-03-26T01:14:16.262Z,31.97
2018-03-26T01:16:44.729Z,33.20
2018-03-26T01:19:13.138Z,32.83
2018-03-26T01:21:41.545Z,34.20
2018-03-26T01:24:09.993Z,33.73
2018-03-26T01:26:38.398Z,35.67
2018-03-26T01:29:06.810Z,33.30
2018-03-26T01:31:35.262Z,33.33
2018-03-26T01:34:03.670Z,37.53
2018-03-26T01:36:32.080Z,31.33
2018-03-26T01:39:00.549Z,32.43
2018-03-26T01:41:28.952Z,32.97
2018-03-26T01:43:57.358Z,33.90
2018-03-26T01:46:25.810Z,33.87
2018-03-26T01:48:54.218Z,32.87
2018-03-26T01:51:22.629Z,33.90
2018-03-26T01:53:51.097Z,34.53
2018-03-26T01:56:19.502Z,30.10
2018-03-26T01:58:47.911Z,33.07
2018-03-26T02:01:16.356Z,33.73
2018-03-26T02:03:44.763Z,33.90
2018-03-26T02:06:13.211Z,32.37
2018-03-26T02:08:41.677Z,37.87
2018-03-26T02:11:10.081Z,30.67
2018-03-26T02:13:38.489Z,35.43
2018-03-26T02:16:06.958Z,34.73
2018-03-26T02:18:35.359Z,34.47
2018-03-26T02:21:03.792Z,32.83
2018-03-26T02:23:32.249Z,31.57
2018-03-26T02:26:00.658Z,31.57
2018-03-26T02:28:29.071Z,35.07
2018-03-26T02:30:57.517Z,32.60
2018-03-26T02:33:25.917Z,37.77
2018-03-26T02:35:54.334Z,35.40
2018-03-26T02:38:22.793Z,31.83
2018-03-26T02:40:51.201Z,32.23
2018-03-26T02:43:19.610Z,33.70
2018-03-26T02:45:48.075Z,37.77
2018-03-26T02:48:16.493Z,34.63
2018-03-26T02:50:44.933Z,37.17
2018-03-26T02:53:13.386Z,36.00
2018-03-26T02:55:41.795Z,38.43
2018-03-26T02:58:10.219Z,35.63
2018-03-26T03:00:38.670Z,33.47
2018-03-26T03:03:07.075Z,34.57
2018-03-26T03:05:35.482Z,33.20
2018-03-26T03:08:03.962Z,38.17
2018-03-26T03:10:32.429Z,34.10
2018-03-26T03:13:00.865Z,38.23
2018-03-26T03:15:29.335Z,40.37
2018-03-26T03:17:57.758Z,37.50
2018-03-26T03:20:26.174Z,37.07
2018-03-26T03:22:54.622Z,39.50
2018-03-26T03:25:23.066Z,45.37
2018-03-26T03:27:51.474Z,40.53
2018-03-26T03:30:19.927Z,40.57
2018-03-26T03:32:48.341Z,39.80
2018-03-26T03:35:16.750Z,42.43
2018-03-26T03:37:45.197Z,44.27
2018-03-26T03:40:13.602Z,47.40
2018-03-26T03:42:42.007Z,48.33
2018-03-26T03:45:10.465Z,49.07
2018-03-26T03:47:38.870Z,53.80
2018-03-26T03:50:07.302Z,51.17
2018-03-26T03:52:35.754Z,52.17
2018-03-26T03:55:04.194Z,54.70
2018-03-26T03:57:32.593Z,56.73
2018-03-26T04:00:01.057Z,55.27
2018-03-26T04:02:29.462Z,61.03
2018-03-26T04:04:57.870Z,58.70
2018-03-26T04:07:26.327Z,55.43
2018-03-26T04:09:54.738Z,63.70
2018-03-26T04:12:23.146Z,64.73
2018-03-26T04:14:51.594Z,58.73
2018-03-26T04:17:19.997Z,61.90
2018-03-26T04:19:48.406Z,60.03
2018-03-26T04:22:16.858Z,61.80
2018-03-26T04:24:45.265Z,56.07
2018-03-26T04:27:13.676Z,63.50
2018-03-26T04:29:42.163Z,61.37
2018-03-26T04:32:10.569Z,65.50
2018-03-26T04:34:38.982Z,68.53
2018-03-26T04:37:07.429Z,70.20
2018-03-26T04:39:35.838Z,65.93
2018-03-26T04:42:04.254Z,68.30
2018-03-26T04:44:32.701Z,60.13
2018-03-26T04:47:01.111Z,63.73
2018-03-26T04:49:29.518Z,66.13
2018-03-26T04:51:57.965Z,65.17
2018-03-26T04:54:26.373Z,57.57
2018-03-26T04:56:54.786Z,67.13
2018-03-26T04:59:23.233Z,60.97
2018-03-26T05:01:51.642Z,64.17
2018-03-26T05:04:20.062Z,66.03
2018-03-26T05:06:48.534Z,59.27
2018-03-26T05:09:16.941Z,66.83
2018-03-26T05:11:45.357Z,64.23
2018-03-26T05:14:13.826Z,64.27
2018-03-26T05:16:42.294Z,69.33
2018-03-26T05:19:10.678Z,73.47
2018-03-26T05:21:39.128Z,67.80
2018-03-26T05:24:07.534Z,72.73
2018-03-26T05:26:35.943Z,66.93
2018-03-26T05:29:04.417Z,69.33
2018-03-26T05:31:32.829Z,71.77
2018-03-26T05:34:01.237Z,74.33
2018-03-26T05:36:29.681Z,73.53
2018-03-26T05:38:58.090Z,75.33
2018-03-26T05:41:26.503Z,70.57
2018-03-26T05:43:54.949Z,68.33
2018-03-26T05:46:23.389Z,65.23
2018-03-26T05:48:51.793Z,73.93
2018-03-26T05:51:20.241Z,70.40
2018-03-26T05:53:48.653Z,73.17
2018-03-26T05:56:17.057Z,76.27
2018-03-26T05:58:45.521Z,71.60
2018-03-26T06:01:13.926Z,72.63
2018-03-26T06:03:42.355Z,71.00
2018-03-26T06:06:10.821Z,68.50
2018-03-26T06:08:39.229Z,75.67
2018-03-26T06:11:07.986Z,73.27
2018-03-26T06:13:36.918Z,65.20
2018-03-26T06:16:05.354Z,76.50
2018-03-26T06:18:33.784Z,72.67
2018-03-26T06:21:02.254Z,82.27
2018-03-26T06:23:30.698Z,83.50
2018-03-26T06:25:59.132Z,78.73
2018-03-26T06:28:27.605Z,76.13
2018-03-26T06:30:56.033Z,81.83
2018-03-26T06:33:24.461Z,80.43
2018-03-26T06:35:52.946Z,82.97
2018-03-26T06:38:26.977Z,82.40
2018-03-26T06:40:55.446Z,76.13
2018-03-26T06:43:23.962Z,83.27
2018-03-26T06:45:52.364Z,85.87
2018-03-26T06:48:20.817Z,80.20
2018-03-26T06:50:49.221Z,83.00
2018-03-26T06:53:17.626Z,75.70
2018-03-26T06:55:46.110Z,78.17
2018-03-26T06:58:14.522Z,82.87
2018-03-26T07:00:42.929Z,83.80
2018-03-26T07:03:11.401Z,86.23
2018-03-26T07:05:39.805Z,84.63
2018-03-26T07:08:08.213Z,80.80
2018-03-26T07:10:36.666Z,77.47
2018-03-26T07:13:05.074Z,85.10
2018-03-26T07:15:33.481Z,76.77
2018-03-26T07:18:01.947Z,81.73
2018-03-26T07:20:30.363Z,81.60
2018-03-26T07:22:58.774Z,87.27
2018-03-26T07:25:27.430Z,92.27
2018-03-26T07:27:55.841Z,92.40
2018-03-26T07:30:24.253Z,91.00
2018-03-26T07:32:52.713Z,98.83
2018-03-26T07:35:21.123Z,92.43
2018-03-26T07:37:49.534Z,91.63
2018-03-26T07:40:17.998Z,94.30
2018-03-26T07:42:46.402Z,91.93
2018-03-26T07:45:14.822Z,100.57
2018-03-26T07:47:43.292Z,100.80
2018-03-26T07:50:11.702Z,97.83
2018-03-26T07:52:40.110Z,91.10
2018-03-26T07:55:08.565Z,89.60
2018-03-26T07:57:36.970Z,96.93
2018-03-26T08:00:05.434Z,91.77
2018-03-26T08:02:33.886Z,93.67
2018-03-26T08:05:02.298Z,88.87
2018-03-26T08:07:30.705Z,84.57
2018-03-26T08:09:59.158Z,77.73
2018-03-26T08:12:27.574Z,83.57
2018-03-26T08:14:55.985Z,91.13
2018-03-26T08:17:24.451Z,97.20
2018-03-26T08:19:52.862Z,88.73
2018-03-26T08:22:21.291Z,88.70
2018-03-26T08:24:49.749Z,88.73
2018-03-26T08:27:18.158Z,87.97
2018-03-26T08:29:46.568Z,92.13
2018-03-26T08:32:15.038Z,90.80
2018-03-26T08:34:43.446Z,91.90
2018-03-26T08:37:11.854Z,93.70
2018-03-26T08:39:40.313Z,90.03
2018-03-26T08:42:08.772Z,86.87
2018-03-26T08:44:37.158Z,78.07
2018-03-26T08:47:05.809Z,73.27
2018-03-26T08:49:34.219Z,71.40
2018-03-26T08:52:02.631Z,82.07
2018-03-26T08:54:31.083Z,79.43
2018-03-26T08:56:59.486Z,78.10
2018-03-26T08:59:27.893Z,78.07
2018-03-26T09:01:56.366Z,77.13
2018-03-26T09:04:24.769Z,81.33
2018-03-26T09:06:53.170Z,82.50
2018-03-26T09:09:21.625Z,84.10
2018-03-26T09:11:50.033Z,80.53
2018-03-26T09:14:18.446Z,94.43
2018-03-26T09:16:46.897Z,87.90
2018-03-26T09:19:15.324Z,84.63
2018-03-26T09:21:43.745Z,89.60
2018-03-26T09:24:12.194Z,89.97
2018-03-26T09:26:40.630Z,94.67
2018-03-26T09:29:09.038Z,85.97
2018-03-26T09:31:37.494Z,83.70
2018-03-26T09:34:05.897Z,81.03
2018-03-26T09:36:34.310Z,87.77
2018-03-26T09:39:02.774Z,89.03
2018-03-26T09:41:31.178Z,82.03
2018-03-26T09:43:59.582Z,86.47
2018-03-26T09:46:28.026Z,76.47
2018-03-26T09:48:56.433Z,76.90
2018-03-26T09:51:24.841Z,77.27
2018-03-26T09:53:53.298Z,76.27
2018-03-26T09:56:21.703Z,78.73
2018-03-26T09:58:50.122Z,68.30
2018-03-26T10:01:18.849Z,74.60
2018-03-26T10:03:47.262Z,70.50
2018-03-26T10:06:15.673Z,62.50
2018-03-26T10:08:44.125Z,64.57
2018-03-26T10:11:12.534Z,63.10
2018-03-26T10:13:40.962Z,64.93
2018-03-26T10:16:09.435Z,62.23
2018-03-26T10:18:37.845Z,65.03
2018-03-26T10:21:06.255Z,56.43
2018-03-26T10:23:34.721Z,57.23
2018-03-26T10:26:03.134Z,56.93
2018-03-26T10:28:31.541Z,53.63
2018-03-26T10:31:00.129Z,57.63
2018-03-26T10:33:28.538Z,50.33
2018-03-26T10:35:56.982Z,43.40
2018-03-26T10:38:25.467Z,44.50
2018-03-26T10:40:53.906Z,41.60
2018-03-26T10:43:22.322Z,29.87
2018-03-26T10:45:50.793Z,39.10
2018-03-26T10:48:19.210Z,34.23
2018-03-26T10:50:47.625Z,36.00
2018-03-26T10:53:16.097Z,26.20
2018-03-26T10:55:44.514Z,19.80
2018-03-26T10:58:12.933Z,29.07
2018-03-26T11:00:41.405Z,28.63
2018-03-26T11:03:09.823Z,26.30
2018-03-26T11:05:38.241Z,25.03
2018-03-26T11:08:06.721Z,28.87
2018-03-26T11:10:35.130Z,18.70
2018-03-26T11:13:03.537Z,19.47
2018-03-26T11:15:32.007Z,21.80
2018-03-26T11:18:00.418Z,20.57
2018-03-26T11:20:28.830Z,17.30
2018-03-26T11:22:57.283Z,19.23
2018-03-26T11:25:25.693Z,20.30
2018-03-26T11:27:54.102Z,19.20
2018-03-26T11:30:22.559Z,22.87
2018-03-26T11:32:50.989Z,23.00
2018-03-26T11:35:19.402Z,24.73
2018-03-26T11:37:47.866Z,25.87
2018-03-26T11:40:16.281Z,24.60
2018-03-26T11:42:44.698Z,25.13
2018-03-26T11:45:13.175Z,25.27
2018-03-26T11:47:41.598Z,22.50
2018-03-26T11:50:10.034Z,23.23
2018-03-26T11:52:38.493Z,25.63
2018-03-26T11:55:06.909Z,27.40
2018-03-26T11:57:35.353Z,22.10
2018-03-26T12:00:03.873Z,23.17
2018-03-26T12:02:32.285Z,22.90
2018-03-26T12:05:00.699Z,23.97
2018-03-26T12:07:29.162Z,26.10
2018-03-26T12:09:57.582Z,25.87
2018-03-26T12:12:26.054Z,22.33
2018-03-26T12:14:54.516Z,21.80
2018-03-26T12:17:22.929Z,23.73
2018-03-26T12:20:03.166Z,23.67
2018-03-26T12:22:31.577Z,23.40
2018-03-26T12:25:11.590Z,24.13
2018-03-26T12:27:51.745Z,19.17
2018-03-26T12:30:20.970Z,19.27
2018-03-26T12:32:49.381Z,20.23
2018-03-26T12:35:29.791Z,18.53
2018-03-26T12:37:58.241Z,23.13
2018-03-26T12:40:38.569Z,19.43
2018-03-26T12:43:07.041Z,16.07
2018-03-26T12:45:47.395Z,20.17
2018-03-26T12:48:15.806Z,20.43
2018-03-26T12:50:56.077Z,17.23
2018-03-26T12:53:24.506Z,21.23
2018-03-26T12:55:52.926Z,18.37
2018-03-26T12:58:33.164Z,19.90
2018-03-26T13:01:13.284Z,19.23
2018-03-26T13:03:41.741Z,17.77
2018-03-26T13:06:10.171Z,20.70
2018-03-26T13:08:38.599Z,18.73
2018-03-26T13:11:07.081Z,19.37
2018-03-26T13:13:35.497Z,18.97
2018-03-26T13:16:03.918Z,20.40
2018-03-26T13:18:32.535Z,19.83
2018-03-26T13:21:00.954Z,19.50
2018-03-26T13:23:29.373Z,21.80
2018-03-26T13:25:57.838Z,21.13
2018-03-26T13:28:26.273Z,22.80
2018-03-26T13:30:54.694Z,24.60
2018-03-26T13:33:23.165Z,23.27
2018-03-26T13:35:51.580Z,23.53
2018-03-26T13:38:19.996Z,25.07
2018-03-26T13:40:48.454Z,24.40
2018-03-26T13:43:16.862Z,20.67
2018-03-26T13:45:45.277Z,18.97
2018-03-26T13:48:13.730Z,22.77
2018-03-26T13:50:42.145Z,20.20
2018-03-26T13:53:10.561Z,20.77
2018-03-26T13:55:39.043Z,19.30
2018-03-26T13:58:07.502Z,21.40
2018-03-26T14:00:35.917Z,21.53
2018-03-26T14:03:04.402Z,22.17
2018-03-26T14:05:32.813Z,25.03
2018-03-26T14:08:01.229Z,24.77
2018-03-26T14:10:41.593Z,22.93
2018-03-26T14:13:21.646Z,23.37
2018-03-26T14:16:01.814Z,20.00
2018-03-26T14:18:30.256Z,21.10
2018-03-26T14:20:59.082Z,25.03
2018-03-26T14:23:27.534Z,21.20
2018-03-26T14:25:55.949Z,22.03
2018-03-26T14:28:24.361Z,21.30
2018-03-26T14:30:52.847Z,21.03
2018-03-26T14:33:21.265Z,19.20
2018-03-26T14:35:50.476Z,21.90
2018-03-26T14:38:19.019Z,22.93
2018-03-26T14:40:47.433Z,20.90
2018-03-26T14:43:15.850Z,21.97
2018-03-26T14:45:44.322Z,20.00
2018-03-26T14:48:12.738Z,20.20
2018-03-26T14:50:41.182Z,19.83
2018-03-26T14:53:09.641Z,19.80
2018-03-26T14:55:38.052Z,17.23
2018-03-26T14:58:06.496Z,17.70
2018-03-26T15:00:34.963Z,18.57
2018-03-26T15:03:03.377Z,16.00
2018-03-26T15:05:31.790Z,15.47
2018-03-26T15:08:00.241Z,21.03
2018-03-26T15:10:28.656Z,19.20
2018-03-26T15:12:57.071Z,18.40
2018-03-26T15:15:25.534Z,18.27
2018-03-26T15:17:53.946Z,20.60
2018-03-26T15:20:22.417Z,19.63
2018-03-26T15:22:51.014Z,21.27
2018-03-26T15:25:19.440Z,20.73
2018-03-26T15:27:47.862Z,21.20
2018-03-26T15:30:16.323Z,19.43
2018-03-26T15:32:44.746Z,20.23
2018-03-26T15:35:13.186Z,22.07
2018-03-26T15:37:41.646Z,18.43
2018-03-26T15:40:10.065Z,17.37
2018-03-26T15:42:38.482Z,18.40
2018-03-26T15:45:06.946Z,18.03
2018-03-26T15:47:35.358Z,19.47
2018-03-26T15:50:03.786Z,18.80
2018-03-26T15:52:32.238Z,18.07
2018-03-26T15:55:00.646Z,18.73
2018-03-26T15:57:29.054Z,17.97
2018-03-26T15:59:57.534Z,16.83
2018-03-26T16:02:31.401Z,18.40
2018-03-26T16:04:59.865Z,18.07
2018-03-26T16:07:28.278Z,16.40
2018-03-26T16:09:56.712Z,16.30
2018-03-26T16:12:25.198Z,15.70
2018-03-26T16:14:53.602Z,18.60
2018-03-26T16:17:22.022Z,18.07
2018-03-26T16:19:50.490Z,17.73
2018-03-26T16:22:18.898Z,17.00
2018-03-26T16:24:47.305Z,16.53
2018-03-26T16:27:15.755Z,17.60
2018-03-26T16:29:44.173Z,16.43
2018-03-26T16:32:12.586Z,16.57
2018-03-26T16:34:41.041Z,18.20
2018-03-26T16:37:09.461Z,17.07
2018-03-26T16:39:37.870Z,16.00
2018-03-26T16:42:18.182Z,19.70
2018-03-26T16:44:46.590Z,20.00
2018-03-26T16:47:14.998Z,18.57
2018-03-26T16:49:43.465Z,18.27
2018-03-26T16:52:11.873Z,17.17
2018-03-26T16:54:40.287Z,17.33
2018-03-26T16:57:08.745Z,15.40
2018-03-26T16:59:37.157Z,17.03
2018-03-26T17:02:05.581Z,14.20
2018-03-26T17:04:34.049Z,15.80
2018-03-26T17:07:02.465Z,15.20
2018-03-26T17:09:30.877Z,17.40
2018-03-26T17:11:59.333Z,17.67
2018-03-26T17:14:27.749Z,17.40
2018-03-26T17:16:56.162Z,19.73
2018-03-26T17:19:24.717Z,21.47
2018-03-26T17:21:53.134Z,21.30
2018-03-26T17:24:21.558Z,17.10
2018-03-26T17:26:50.022Z,16.90
2018-03-26T17:29:18.448Z,19.63
2018-03-26T17:31:46.873Z,19.90
2018-03-26T17:34:15.473Z,18.50
2018-03-26T17:36:43.886Z,22.63
2018-03-26T17:39:12.302Z,20.90
2018-03-26T17:41:40.778Z,22.60
2018-03-26T17:44:09.193Z,20.87
2018-03-26T17:46:37.610Z,23.67
2018-03-26T17:49:06.095Z,22.07
2018-03-26T17:51:34.517Z,20.70
2018-03-26T17:54:02.930Z,22.93
2018-03-26T17:56:31.406Z,21.47
2018-03-26T17:58:59.817Z,23.03
2018-03-26T18:01:28.241Z,21.50
2018-03-26T18:03:56.714Z,24.73
2018-03-26T18:06:25.123Z,24.20
2018-03-26T18:08:53.538Z,20.77
2018-03-26T18:11:21.993Z,22.27
2018-03-26T18:13:50.405Z,25.97
2018-03-26T18:16:18.819Z,20.77
2018-03-26T18:18:47.277Z,24.40
2018-03-26T18:21:15.707Z,23.27
2018-03-26T18:23:44.137Z,22.50
2018-03-26T18:26:12.593Z,22.23
2018-03-26T18:28:41.005Z,24.73
2018-03-26T18:31:09.433Z,24.20
2018-03-26T18:33:38.165Z,24.60
2018-03-26T18:36:06.586Z,27.63
2018-03-26T18:38:34.997Z,26.33
2018-03-26T18:41:03.446Z,26.87
2018-03-26T18:43:31.858Z,24.43
2018-03-26T18:46:00.267Z,24.20
2018-03-26T18:48:28.729Z,24.67
2018-03-26T18:50:57.183Z,23.63
2018-03-26T18:53:25.629Z,34.23
2018-03-26T18:55:54.081Z,26.73
2018-03-26T18:58:22.498Z,28.83
2018-03-26T19:00:50.910Z,25.93
2018-03-26T19:03:20.262Z,22.83
2018-03-26T19:05:48.679Z,25.27
2018-03-26T19:08:17.136Z,26.17
2018-03-26T19:10:45.600Z,25.33
2018-03-26T19:13:14.019Z,26.07
2018-03-26T19:15:42.474Z,26.83
2018-03-26T19:18:10.950Z,28.17
2018-03-26T19:20:39.386Z,25.63
2018-03-26T19:23:07.806Z,28.50
2018-03-26T19:25:36.262Z,29.40
2018-03-26T19:28:04.694Z,29.77
2018-03-26T19:30:33.107Z,32.40
2018-03-26T19:33:01.582Z,29.23
2018-03-26T19:35:29.997Z,28.10
2018-03-26T19:37:58.409Z,29.23
2018-03-26T19:40:26.877Z,28.53
2018-03-26T19:42:55.294Z,29.50
2018-03-26T19:45:23.714Z,28.67
2018-03-26T19:47:52.190Z,29.50
2018-03-26T19:50:20.609Z,31.50
2018-03-26T19:52:49.018Z,32.27
2018-03-26T19:55:17.481Z,30.40
2018-03-26T19:57:46.008Z,28.27
2018-03-26T20:00:14.423Z,31.27
2018-03-26T20:02:42.886Z,31.10
2018-03-26T20:05:11.311Z,33.70
2018-03-26T20:07:39.739Z,42.47
2018-03-26T20:10:08.194Z,39.57
2018-03-26T20:12:36.630Z,42.73
2018-03-26T20:15:05.050Z,35.53
2018-03-26T20:17:33.522Z,34.67
2018-03-26T20:20:01.934Z,38.23
2018-03-26T20:22:30.347Z,36.87
2018-03-26T20:24:58.802Z,35.47
2018-03-26T20:27:27.216Z,35.60
2018-03-26T20:29:55.626Z,33.93
2018-03-26T20:32:24.085Z,31.27
2018-03-26T20:34:52.501Z,32.80
2018-03-26T20:37:20.914Z,34.00
2018-03-26T20:39:49.439Z,30.23
2018-03-26T20:42:17.854Z,28.90
2018-03-26T20:44:46.269Z,27.57
2018-03-26T20:47:14.740Z,28.10
2018-03-26T20:49:43.155Z,27.60
2018-03-26T20:52:11.589Z,26.67
2018-03-26T20:54:40.045Z,26.27
2018-03-26T20:57:08.460Z,27.23
2018-03-26T20:59:36.876Z,25.83
2018-03-26T21:02:05.337Z,25.73
2018-03-26T21:04:33.757Z,24.57
2018-03-26T21:07:02.165Z,25.43
2018-03-26T21:09:30.630Z,21.77
2018-03-26T21:11:59.041Z,24.57
2018-03-26T21:14:27.457Z,23.73
2018-03-26T21:16:55.942Z,29.47
2018-03-26T21:19:24.366Z,24.43
2018-03-26T21:21:52.778Z,27.47
2018-03-26T21:24:21.245Z,24.33
2018-03-26T21:26:49.661Z,22.30
2018-03-26T21:29:18.075Z,25.47
2018-03-26T21:31:46.530Z,26.17
2018-03-26T21:34:14.947Z,26.90
2018-03-26T21:36:43.401Z,26.07
2018-03-26T21:39:11.885Z,24.63
2018-03-26T21:41:40.301Z,24.23
2018-03-26T21:44:08.709Z,25.13
2018-03-26T21:46:37.165Z,24.13
2018-03-26T21:49:05.601Z,23.70
2018-03-26T21:51:34.023Z,25.77
2018-03-26T21:54:02.478Z,22.40
2018-03-26T21:56:30.992Z,24.40
2018-03-26T21:58:59.331Z,23.30
2018-03-26T22:01:27.810Z,27.23
2018-03-26T22:03:56.221Z,26.17
2018-03-26T22:06:24.633Z,26.90
2018-03-26T22:08:53.093Z,24.40
2018-03-26T22:11:21.513Z,24.23
2018-03-26T22:13:49.931Z,25.97
2018-03-26T22:16:18.390Z,26.53
2018-03-26T22:18:46.806Z,23.90
2018-03-26T22:21:15.247Z,27.70
2018-03-26T22:26:17.295Z,26.00
2018-03-26T22:28:45.731Z,29.03
2018-03-26T22:31:14.123Z,27.70
2018-03-26T22:33:42.633Z,28.33
2018-03-26T22:36:11.083Z,26.80
2018-03-26T22:38:39.475Z,30.07
2018-03-26T22:41:07.909Z,30.60
2018-03-26T22:43:36.385Z,31.67
2018-03-26T22:46:04.817Z,30.43
2018-03-26T22:48:33.262Z,32.13
2018-03-26T22:51:01.757Z,29.03
2018-03-26T22:53:30.203Z,33.23
2018-03-26T22:55:58.595Z,31.60
2018-03-26T22:58:27.029Z,31.57
2018-03-26T23:00:55.423Z,33.07
2018-03-26T23:03:23.867Z,31.53
2018-03-26T23:05:52.498Z,31.20
2018-03-26T23:08:20.887Z,30.60
2018-03-26T23:10:49.284Z,31.00
2018-03-26T23:13:17.759Z,27.97
2018-03-26T23:15:46.150Z,29.00
2018-03-26T23:18:14.574Z,29.73
2018-03-26T23:20:43.028Z,30.73
2018-03-26T23:23:11.433Z,29.50
2018-03-26T23:25:39.830Z,30.60
2018-03-26T23:28:08.277Z,32.87
2018-03-26T23:30:36.694Z,31.13
2018-03-26T23:33:05.113Z,33.50
2018-03-26T23:35:33.561Z,34.10
2018-03-26T23:38:01.983Z,32.37
2018-03-26T23:40:30.398Z,35.07
2018-03-26T23:42:58.853Z,37.57
2018-03-26T23:45:27.285Z,32.60
2018-03-26T23:47:55.698Z,35.47
2018-03-26T23:50:24.169Z,35.40
2018-03-26T23:52:52.586Z,33.63
2018-03-26T23:55:21.010Z,35.40
2018-03-26T23:57:49.470Z,36.53
